sensor_id;sensor_type;location;lat;lon;timestamp;P1;durP1;ratioP1;P2;durP2;ratioP2
24485;SDS011;13449;49.374;8.584;2023-03-23T00:01:57;1.63;;;0.80;;
24485;SDS011;13449;49.374;8.584;2023-03-23T00:04:22;2.78;;;0.90;;
24485;SDS011;13449;49.374;8.584;2023-03-23T00:06:51;2.45;;;0.90;;
24485;SDS011;13449;49.374;8.584;2023-03-23T00:09:16;0.82;;;0.70;;
24485;SDS011;13449;49.374;8.584;2023-03-23T00:11:48;1.38;;;0.82;;
24485;SDS011;13449;49.374;8.584;2023-03-23T00:14:15;1.25;;;0.95;;
24485;SDS011;13449;49.374;8.584;2023-03-23T00:16:47;0.95;;;0.75;;
24485;SDS011;13449;49.374;8.584;2023-03-23T00:19:14;4.15;;;0.90;;
24485;SDS011;13449;49.374;8.584;2023-03-23T00:21:39;8.70;;;0.90;;
24485;SDS011;13449;49.374;8.584;2023-03-23T00:24:07;6.65;;;0.95;;
24485;SDS011;13449;49.374;8.584;2023-03-23T00:26:36;1.45;;;0.50;;
24485;SDS011;13449;49.374;8.584;2023-03-23T00:29:06;0.60;;;0.60;;
24485;SDS011;13449;49.374;8.584;2023-03-23T00:31:32;3.97;;;0.75;;
24485;SDS011;13449;49.374;8.584;2023-03-23T00:34:00;1.52;;;0.63;;
24485;SDS011;13449;49.374;8.584;2023-03-23T00:36:29;0.70;;;0.65;;
24485;SDS011;13449;49.374;8.584;2023-03-23T00:39:00;0.77;;;0.77;;
24485;SDS011;13449;49.374;8.584;2023-03-23T00:41:27;1.67;;;0.50;;
24485;SDS011;13449;49.374;8.584;2023-03-23T00:43:54;1.85;;;0.68;;
24485;SDS011;13449;49.374;8.584;2023-03-23T00:46:21;1.17;;;0.40;;
24485;SDS011;13449;49.374;8.584;2023-03-23T00:48:47;1.77;;;0.77;;
24485;SDS011;13449;49.374;8.584;2023-03-23T00:51:13;2.40;;;1.02;;
24485;SDS011;13449;49.374;8.584;2023-03-23T00:53:39;0.95;;;0.65;;
24485;SDS011;13449;49.374;8.584;2023-03-23T00:56:05;1.63;;;0.65;;
24485;SDS011;13449;49.374;8.584;2023-03-23T00:58:33;0.57;;;0.52;;
24485;SDS011;13449;49.374;8.584;2023-03-23T01:00:58;0.68;;;0.68;;
24485;SDS011;13449;49.374;8.584;2023-03-23T01:03:24;3.75;;;1.10;;
24485;SDS011;13449;49.374;8.584;2023-03-23T01:05:51;1.65;;;0.50;;
24485;SDS011;13449;49.374;8.584;2023-03-23T01:08:20;2.92;;;0.73;;
24485;SDS011;13449;49.374;8.584;2023-03-23T01:10:48;1.98;;;0.85;;
24485;SDS011;13449;49.374;8.584;2023-03-23T01:13:15;0.68;;;0.60;;
24485;SDS011;13449;49.374;8.584;2023-03-23T01:15:41;1.42;;;0.65;;
24485;SDS011;13449;49.374;8.584;2023-03-23T01:18:07;0.77;;;0.47;;
24485;SDS011;13449;49.374;8.584;2023-03-23T01:20:34;1.00;;;0.52;;
24485;SDS011;13449;49.374;8.584;2023-03-23T01:23:02;1.88;;;0.55;;
24485;SDS011;13449;49.374;8.584;2023-03-23T01:25:28;0.80;;;0.73;;
24485;SDS011;13449;49.374;8.584;2023-03-23T01:27:56;0.98;;;0.60;;
24485;SDS011;13449;49.374;8.584;2023-03-23T01:30:24;1.98;;;0.80;;
24485;SDS011;13449;49.374;8.584;2023-03-23T01:32:50;3.42;;;0.68;;
24485;SDS011;13449;49.374;8.584;2023-03-23T01:35:16;0.70;;;0.60;;
24485;SDS011;13449;49.374;8.584;2023-03-23T01:37:42;2.65;;;1.00;;
24485;SDS011;13449;49.374;8.584;2023-03-23T01:40:08;0.90;;;0.90;;
24485;SDS011;13449;49.374;8.584;2023-03-23T01:42:35;1.67;;;0.77;;
24485;SDS011;13449;49.374;8.584;2023-03-23T01:47:49;1.48;;;0.90;;
24485;SDS011;13449;49.374;8.584;2023-03-23T01:50:22;1.88;;;0.70;;
24485;SDS011;13449;49.374;8.584;2023-03-23T01:52:51;0.52;;;0.45;;
24485;SDS011;13449;49.374;8.584;2023-03-23T01:55:18;1.00;;;0.82;;
24485;SDS011;13449;49.374;8.584;2023-03-23T01:57:45;2.50;;;0.85;;
24485;SDS011;13449;49.374;8.584;2023-03-23T02:00:12;4.00;;;0.82;;
24485;SDS011;13449;49.374;8.584;2023-03-23T02:02:42;0.93;;;0.60;;
24485;SDS011;13449;49.374;8.584;2023-03-23T02:05:18;2.47;;;0.70;;
24485;SDS011;13449;49.374;8.584;2023-03-23T02:07:49;1.75;;;0.93;;
24485;SDS011;13449;49.374;8.584;2023-03-23T02:10:16;5.72;;;1.00;;
24485;SDS011;13449;49.374;8.584;2023-03-23T02:12:44;1.85;;;0.82;;
24485;SDS011;13449;49.374;8.584;2023-03-23T02:15:10;4.13;;;0.60;;
24485;SDS011;13449;49.374;8.584;2023-03-23T02:20:20;2.30;;;0.85;;
24485;SDS011;13449;49.374;8.584;2023-03-23T02:37:11;0.88;;;0.70;;
24485;SDS011;13449;49.374;8.584;2023-03-23T02:39:51;1.55;;;0.40;;
24485;SDS011;13449;49.374;8.584;2023-03-23T02:42:26;1.45;;;0.80;;
24485;SDS011;13449;49.374;8.584;2023-03-23T02:44:56;1.13;;;0.70;;
24485;SDS011;13449;49.374;8.584;2023-03-23T02:47:29;2.00;;;0.95;;
24485;SDS011;13449;49.374;8.584;2023-03-23T02:49:55;3.75;;;0.60;;
24485;SDS011;13449;49.374;8.584;2023-03-23T02:52:29;1.38;;;0.60;;
24485;SDS011;13449;49.374;8.584;2023-03-23T02:54:57;0.50;;;0.50;;
24485;SDS011;13449;49.374;8.584;2023-03-23T02:57:24;3.88;;;0.50;;
24485;SDS011;13449;49.374;8.584;2023-03-23T02:59:54;0.45;;;0.45;;
24485;SDS011;13449;49.374;8.584;2023-03-23T03:02:23;3.58;;;0.75;;
24485;SDS011;13449;49.374;8.584;2023-03-23T03:05:06;1.23;;;0.90;;
24485;SDS011;13449;49.374;8.584;2023-03-23T03:13:40;3.08;;;1.10;;
24485;SDS011;13449;49.374;8.584;2023-03-23T03:16:29;1.27;;;0.80;;
24485;SDS011;13449;49.374;8.584;2023-03-23T03:19:02;1.35;;;0.75;;
24485;SDS011;13449;49.374;8.584;2023-03-23T03:21:33;2.95;;;0.80;;
24485;SDS011;13449;49.374;8.584;2023-03-23T03:24:02;0.73;;;0.65;;
24485;SDS011;13449;49.374;8.584;2023-03-23T03:26:30;1.10;;;0.82;;
24485;SDS011;13449;49.374;8.584;2023-03-23T03:28:56;1.13;;;0.82;;
24485;SDS011;13449;49.374;8.584;2023-03-23T03:31:26;0.57;;;0.50;;
24485;SDS011;13449;49.374;8.584;2023-03-23T03:33:54;1.45;;;0.60;;
24485;SDS011;13449;49.374;8.584;2023-03-23T03:36:21;1.90;;;0.65;;
24485;SDS011;13449;49.374;8.584;2023-03-23T03:38:51;1.15;;;0.60;;
24485;SDS011;13449;49.374;8.584;2023-03-23T03:41:19;1.30;;;0.70;;
24485;SDS011;13449;49.374;8.584;2023-03-23T03:43:45;3.03;;;1.20;;
24485;SDS011;13449;49.374;8.584;2023-03-23T03:46:11;1.25;;;0.73;;
24485;SDS011;13449;49.374;8.584;2023-03-23T03:48:37;4.90;;;0.90;;
24485;SDS011;13449;49.374;8.584;2023-03-23T03:51:03;1.00;;;0.70;;
24485;SDS011;13449;49.374;8.584;2023-03-23T03:53:29;1.10;;;0.70;;
24485;SDS011;13449;49.374;8.584;2023-03-23T03:55:55;1.20;;;1.05;;
24485;SDS011;13449;49.374;8.584;2023-03-23T03:58:24;4.35;;;0.82;;
24485;SDS011;13449;49.374;8.584;2023-03-23T04:00:57;1.63;;;0.85;;
24485;SDS011;13449;49.374;8.584;2023-03-23T04:03:24;0.50;;;0.50;;
24485;SDS011;13449;49.374;8.584;2023-03-23T04:05:50;1.02;;;0.90;;
24485;SDS011;13449;49.374;8.584;2023-03-23T04:08:16;2.08;;;0.85;;
24485;SDS011;13449;49.374;8.584;2023-03-23T04:10:42;3.13;;;1.00;;
24485;SDS011;13449;49.374;8.584;2023-03-23T04:13:08;0.93;;;0.82;;
24485;SDS011;13449;49.374;8.584;2023-03-23T04:15:33;1.88;;;0.77;;
24485;SDS011;13449;49.374;8.584;2023-03-23T04:18:01;3.85;;;0.88;;
24485;SDS011;13449;49.374;8.584;2023-03-23T04:20:30;1.13;;;0.80;;
24485;SDS011;13449;49.374;8.584;2023-03-23T04:23:00;1.05;;;0.82;;
24485;SDS011;13449;49.374;8.584;2023-03-23T04:25:26;1.80;;;1.02;;
24485;SDS011;13449;49.374;8.584;2023-03-23T04:27:52;2.03;;;0.98;;
24485;SDS011;13449;49.374;8.584;2023-03-23T04:30:21;2.40;;;1.15;;
24485;SDS011;13449;49.374;8.584;2023-03-23T04:32:49;5.03;;;1.00;;
24485;SDS011;13449;49.374;8.584;2023-03-23T04:35:17;1.58;;;0.70;;
24485;SDS011;13449;49.374;8.584;2023-03-23T04:37:45;1.40;;;0.93;;
24485;SDS011;13449;49.374;8.584;2023-03-23T04:40:11;4.80;;;0.85;;
24485;SDS011;13449;49.374;8.584;2023-03-23T04:42:40;1.88;;;1.13;;
24485;SDS011;13449;49.374;8.584;2023-03-23T04:45:13;1.75;;;1.02;;
24485;SDS011;13449;49.374;8.584;2023-03-23T04:47:40;4.82;;;1.15;;
24485;SDS011;13449;49.374;8.584;2023-03-23T04:50:07;2.28;;;1.33;;
24485;SDS011;13449;49.374;8.584;2023-03-23T04:52:35;4.07;;;1.63;;
24485;SDS011;13449;49.374;8.584;2023-03-23T04:55:03;7.65;;;2.70;;
24485;SDS011;13449;49.374;8.584;2023-03-23T04:57:30;6.07;;;2.30;;
24485;SDS011;13449;49.374;8.584;2023-03-23T04:59:56;3.17;;;1.63;;
24485;SDS011;13449;49.374;8.584;2023-03-23T05:02:21;2.63;;;1.40;;
24485;SDS011;13449;49.374;8.584;2023-03-23T05:04:46;5.32;;;1.77;;
24485;SDS011;13449;49.374;8.584;2023-03-23T05:07:14;4.45;;;1.60;;
24485;SDS011;13449;49.374;8.584;2023-03-23T05:09:40;2.05;;;1.35;;
24485;SDS011;13449;49.374;8.584;2023-03-23T05:12:07;2.45;;;1.20;;
24485;SDS011;13449;49.374;8.584;2023-03-23T05:14:34;3.47;;;1.38;;
24485;SDS011;13449;49.374;8.584;2023-03-23T05:17:00;1.90;;;1.25;;
24485;SDS011;13449;49.374;8.584;2023-03-23T05:19:26;1.25;;;1.15;;
24485;SDS011;13449;49.374;8.584;2023-03-23T05:21:53;1.95;;;1.10;;
24485;SDS011;13449;49.374;8.584;2023-03-23T05:24:21;2.33;;;1.10;;
24485;SDS011;13449;49.374;8.584;2023-03-23T05:26:46;4.47;;;1.33;;
24485;SDS011;13449;49.374;8.584;2023-03-23T05:29:13;1.60;;;0.98;;
24485;SDS011;13449;49.374;8.584;2023-03-23T05:31:39;3.33;;;1.13;;
24485;SDS011;13449;49.374;8.584;2023-03-23T05:34:05;2.13;;;1.13;;
24485;SDS011;13449;49.374;8.584;2023-03-23T05:36:30;2.83;;;1.20;;
24485;SDS011;13449;49.374;8.584;2023-03-23T05:38:55;3.10;;;1.30;;
24485;SDS011;13449;49.374;8.584;2023-03-23T05:41:25;2.63;;;1.45;;
24485;SDS011;13449;49.374;8.584;2023-03-23T05:43:50;3.67;;;1.55;;
24485;SDS011;13449;49.374;8.584;2023-03-23T05:46:16;5.55;;;1.63;;
24485;SDS011;13449;49.374;8.584;2023-03-23T05:48:44;6.20;;;1.50;;
24485;SDS011;13449;49.374;8.584;2023-03-23T05:51:09;3.70;;;1.98;;
24485;SDS011;13449;49.374;8.584;2023-03-23T05:53:35;3.47;;;1.80;;
24485;SDS011;13449;49.374;8.584;2023-03-23T05:56:03;1.75;;;1.05;;
24485;SDS011;13449;49.374;8.584;2023-03-23T05:58:29;4.03;;;1.30;;
24485;SDS011;13449;49.374;8.584;2023-03-23T06:00:57;2.90;;;1.38;;
24485;SDS011;13449;49.374;8.584;2023-03-23T06:03:22;2.28;;;1.02;;
24485;SDS011;13449;49.374;8.584;2023-03-23T06:05:48;1.50;;;1.15;;
24485;SDS011;13449;49.374;8.584;2023-03-23T06:08:16;2.30;;;1.13;;
24485;SDS011;13449;49.374;8.584;2023-03-23T06:10:42;2.47;;;1.13;;
24485;SDS011;13449;49.374;8.584;2023-03-23T06:13:07;1.98;;;1.17;;
24485;SDS011;13449;49.374;8.584;2023-03-23T06:15:32;1.23;;;1.10;;
24485;SDS011;13449;49.374;8.584;2023-03-23T06:17:58;1.80;;;1.17;;
24485;SDS011;13449;49.374;8.584;2023-03-23T06:20:24;2.80;;;1.52;;
24485;SDS011;13449;49.374;8.584;2023-03-23T06:22:50;1.70;;;1.10;;
24485;SDS011;13449;49.374;8.584;2023-03-23T06:25:18;2.33;;;1.05;;
24485;SDS011;13449;49.374;8.584;2023-03-23T06:27:44;2.00;;;1.02;;
24485;SDS011;13449;49.374;8.584;2023-03-23T06:30:11;4.57;;;1.67;;
24485;SDS011;13449;49.374;8.584;2023-03-23T06:32:39;2.10;;;0.88;;
24485;SDS011;13449;49.374;8.584;2023-03-23T06:35:05;1.05;;;0.88;;
24485;SDS011;13449;49.374;8.584;2023-03-23T06:37:34;2.03;;;0.80;;
24485;SDS011;13449;49.374;8.584;2023-03-23T06:40:00;1.92;;;1.20;;
24485;SDS011;13449;49.374;8.584;2023-03-23T06:42:25;1.13;;;0.75;;
24485;SDS011;13449;49.374;8.584;2023-03-23T06:44:53;1.80;;;0.80;;
24485;SDS011;13449;49.374;8.584;2023-03-23T06:47:22;1.45;;;0.70;;
24485;SDS011;13449;49.374;8.584;2023-03-23T06:49:49;2.58;;;1.45;;
24485;SDS011;13449;49.374;8.584;2023-03-23T06:52:16;2.08;;;1.60;;
24485;SDS011;13449;49.374;8.584;2023-03-23T06:54:47;2.10;;;1.40;;
24485;SDS011;13449;49.374;8.584;2023-03-23T06:57:13;2.75;;;1.23;;
24485;SDS011;13449;49.374;8.584;2023-03-23T06:59:38;3.33;;;1.10;;
24485;SDS011;13449;49.374;8.584;2023-03-23T07:02:04;1.77;;;1.00;;
24485;SDS011;13449;49.374;8.584;2023-03-23T07:04:29;1.73;;;1.05;;
24485;SDS011;13449;49.374;8.584;2023-03-23T07:06:55;1.35;;;0.95;;
24485;SDS011;13449;49.374;8.584;2023-03-23T07:09:21;2.05;;;1.38;;
24485;SDS011;13449;49.374;8.584;2023-03-23T07:11:47;3.60;;;1.20;;
24485;SDS011;13449;49.374;8.584;2023-03-23T07:14:14;1.98;;;1.10;;
24485;SDS011;13449;49.374;8.584;2023-03-23T07:16:40;1.60;;;1.10;;
24485;SDS011;13449;49.374;8.584;2023-03-23T07:19:05;1.08;;;0.95;;
24485;SDS011;13449;49.374;8.584;2023-03-23T07:21:31;1.77;;;1.00;;
24485;SDS011;13449;49.374;8.584;2023-03-23T07:23:56;2.88;;;0.80;;
24485;SDS011;13449;49.374;8.584;2023-03-23T07:26:21;1.33;;;0.70;;
24485;SDS011;13449;49.374;8.584;2023-03-23T07:28:47;2.92;;;1.00;;
24485;SDS011;13449;49.374;8.584;2023-03-23T07:31:12;9.30;;;1.20;;
24485;SDS011;13449;49.374;8.584;2023-03-23T07:33:38;1.15;;;0.60;;
24485;SDS011;13449;49.374;8.584;2023-03-23T07:36:04;2.00;;;0.90;;
24485;SDS011;13449;49.374;8.584;2023-03-23T07:38:31;1.48;;;0.90;;
24485;SDS011;13449;49.374;8.584;2023-03-23T07:40:57;5.20;;;1.23;;
24485;SDS011;13449;49.374;8.584;2023-03-23T07:43:25;1.23;;;0.75;;
24485;SDS011;13449;49.374;8.584;2023-03-23T07:45:51;2.50;;;0.90;;
24485;SDS011;13449;49.374;8.584;2023-03-23T07:48:19;1.30;;;0.57;;
24485;SDS011;13449;49.374;8.584;2023-03-23T07:50:45;0.82;;;0.50;;
24485;SDS011;13449;49.374;8.584;2023-03-23T07:53:11;1.10;;;0.75;;
24485;SDS011;13449;49.374;8.584;2023-03-23T07:55:39;1.95;;;0.75;;
24485;SDS011;13449;49.374;8.584;2023-03-23T07:58:05;2.30;;;0.65;;
24485;SDS011;13449;49.374;8.584;2023-03-23T08:00:31;0.73;;;0.68;;
24485;SDS011;13449;49.374;8.584;2023-03-23T08:02:58;1.40;;;0.43;;
24485;SDS011;13449;49.374;8.584;2023-03-23T08:05:24;1.85;;;0.60;;
24485;SDS011;13449;49.374;8.584;2023-03-23T08:07:51;1.25;;;0.38;;
24485;SDS011;13449;49.374;8.584;2023-03-23T08:10:19;2.47;;;0.57;;
24485;SDS011;13449;49.374;8.584;2023-03-23T08:12:50;2.42;;;0.50;;
24485;SDS011;13449;49.374;8.584;2023-03-23T08:15:20;1.48;;;0.50;;
24485;SDS011;13449;49.374;8.584;2023-03-23T08:17:47;7.90;;;0.98;;
24485;SDS011;13449;49.374;8.584;2023-03-23T08:20:13;3.83;;;0.60;;
24485;SDS011;13449;49.374;8.584;2023-03-23T08:22:40;0.85;;;0.55;;
24485;SDS011;13449;49.374;8.584;2023-03-23T08:25:08;5.32;;;0.63;;
24485;SDS011;13449;49.374;8.584;2023-03-23T08:27:35;1.10;;;0.50;;
24485;SDS011;13449;49.374;8.584;2023-03-23T08:30:01;3.00;;;0.40;;
24485;SDS011;13449;49.374;8.584;2023-03-23T08:32:32;2.42;;;0.75;;
24485;SDS011;13449;49.374;8.584;2023-03-23T08:34:58;1.88;;;0.60;;
24485;SDS011;13449;49.374;8.584;2023-03-23T08:37:23;1.45;;;0.65;;
24485;SDS011;13449;49.374;8.584;2023-03-23T08:39:52;0.65;;;0.60;;
24485;SDS011;13449;49.374;8.584;2023-03-23T08:42:19;2.42;;;0.50;;
24485;SDS011;13449;49.374;8.584;2023-03-23T08:44:44;0.80;;;0.50;;
24485;SDS011;13449;49.374;8.584;2023-03-23T08:47:10;1.17;;;0.50;;
24485;SDS011;13449;49.374;8.584;2023-03-23T08:49:35;3.67;;;0.55;;
24485;SDS011;13449;49.374;8.584;2023-03-23T08:52:01;3.13;;;0.55;;
24485;SDS011;13449;49.374;8.584;2023-03-23T08:54:28;4.15;;;0.68;;
24485;SDS011;13449;49.374;8.584;2023-03-23T08:56:55;2.42;;;0.50;;
24485;SDS011;13449;49.374;8.584;2023-03-23T08:59:23;0.63;;;0.63;;
24485;SDS011;13449;49.374;8.584;2023-03-23T09:01:50;1.67;;;0.93;;
24485;SDS011;13449;49.374;8.584;2023-03-23T09:04:15;1.15;;;0.68;;
24485;SDS011;13449;49.374;8.584;2023-03-23T09:06:40;5.43;;;0.55;;
24485;SDS011;13449;49.374;8.584;2023-03-23T09:09:06;4.30;;;0.77;;
24485;SDS011;13449;49.374;8.584;2023-03-23T09:11:34;1.77;;;0.77;;
24485;SDS011;13449;49.374;8.584;2023-03-23T09:14:01;1.90;;;0.52;;
24485;SDS011;13449;49.374;8.584;2023-03-23T09:16:28;0.90;;;0.70;;
24485;SDS011;13449;49.374;8.584;2023-03-23T09:18:54;2.90;;;0.90;;
24485;SDS011;13449;49.374;8.584;2023-03-23T09:21:25;1.42;;;0.68;;
24485;SDS011;13449;49.374;8.584;2023-03-23T09:23:53;1.33;;;0.60;;
24485;SDS011;13449;49.374;8.584;2023-03-23T09:26:24;1.60;;;0.60;;
24485;SDS011;13449;49.374;8.584;2023-03-23T09:28:51;9.38;;;1.02;;
24485;SDS011;13449;49.374;8.584;2023-03-23T09:31:17;1.50;;;0.90;;
24485;SDS011;13449;49.374;8.584;2023-03-23T09:33:45;1.73;;;0.80;;
24485;SDS011;13449;49.374;8.584;2023-03-23T09:36:12;8.18;;;1.10;;
24485;SDS011;13449;49.374;8.584;2023-03-23T09:38:39;1.40;;;0.63;;
24485;SDS011;13449;49.374;8.584;2023-03-23T09:46:48;0.73;;;0.73;;
24485;SDS011;13449;49.374;8.584;2023-03-23T09:54:40;0.55;;;0.55;;
24485;SDS011;13449;49.374;8.584;2023-03-23T09:57:28;0.82;;;0.60;;
24485;SDS011;13449;49.374;8.584;2023-03-23T10:02:46;8.60;;;2.50;;
24485;SDS011;13449;49.374;8.584;2023-03-23T10:05:34;0.65;;;0.65;;
24485;SDS011;13449;49.374;8.584;2023-03-23T10:08:05;1.52;;;0.70;;
24485;SDS011;13449;49.374;8.584;2023-03-23T10:10:41;2.13;;;0.57;;
24485;SDS011;13449;49.374;8.584;2023-03-23T10:13:20;1.38;;;0.70;;
24485;SDS011;13449;49.374;8.584;2023-03-23T10:15:50;0.50;;;0.40;;
24485;SDS011;13449;49.374;8.584;2023-03-23T10:21:12;1.60;;;0.88;;
24485;SDS011;13449;49.374;8.584;2023-03-23T10:29:13;1.65;;;0.88;;
24485;SDS011;13449;49.374;8.584;2023-03-23T10:31:44;4.88;;;0.55;;
24485;SDS011;13449;49.374;8.584;2023-03-23T10:34:18;1.00;;;0.90;;
24485;SDS011;13449;49.374;8.584;2023-03-23T10:39:58;0.73;;;0.60;;
24485;SDS011;13449;49.374;8.584;2023-03-23T10:42:35;1.20;;;0.60;;
24485;SDS011;13449;49.374;8.584;2023-03-23T10:45:17;3.70;;;0.60;;
24485;SDS011;13449;49.374;8.584;2023-03-23T10:47:57;0.60;;;0.60;;
24485;SDS011;13449;49.374;8.584;2023-03-23T10:50:43;4.80;;;0.70;;
24485;SDS011;13449;49.374;8.584;2023-03-23T10:53:20;3.78;;;1.60;;
24485;SDS011;13449;49.374;8.584;2023-03-23T10:55:50;3.05;;;1.52;;
24485;SDS011;13449;49.374;8.584;2023-03-23T10:58:25;2.33;;;1.30;;
24485;SDS011;13449;49.374;8.584;2023-03-23T11:00:57;3.97;;;0.80;;
24485;SDS011;13449;49.374;8.584;2023-03-23T11:06:18;2.05;;;0.70;;
24485;SDS011;13449;49.374;8.584;2023-03-23T11:08:52;0.60;;;0.45;;
24485;SDS011;13449;49.374;8.584;2023-03-23T11:11:24;1.30;;;0.75;;
24485;SDS011;13449;49.374;8.584;2023-03-23T11:18:51;1.23;;;0.43;;
24485;SDS011;13449;49.374;8.584;2023-03-23T11:21:17;2.83;;;1.80;;
24485;SDS011;13449;49.374;8.584;2023-03-23T11:23:55;1.45;;;0.88;;
24485;SDS011;13449;49.374;8.584;2023-03-23T11:26:25;2.47;;;1.48;;
24485;SDS011;13449;49.374;8.584;2023-03-23T11:29:12;11.10;;;3.53;;
24485;SDS011;13449;49.374;8.584;2023-03-23T11:31:44;8.32;;;3.70;;
24485;SDS011;13449;49.374;8.584;2023-03-23T11:34:22;7.88;;;4.38;;
24485;SDS011;13449;49.374;8.584;2023-03-23T11:36:52;3.78;;;1.60;;
24485;SDS011;13449;49.374;8.584;2023-03-23T11:39:30;1.73;;;0.70;;
24485;SDS011;13449;49.374;8.584;2023-03-23T11:41:58;1.33;;;1.10;;
24485;SDS011;13449;49.374;8.584;2023-03-23T11:44:40;0.75;;;0.75;;
24485;SDS011;13449;49.374;8.584;2023-03-23T11:47:16;5.05;;;3.45;;
24485;SDS011;13449;49.374;8.584;2023-03-23T11:50:03;1.73;;;1.40;;
24485;SDS011;13449;49.374;8.584;2023-03-23T11:55:18;1.95;;;1.30;;
24485;SDS011;13449;49.374;8.584;2023-03-23T11:57:47;1.40;;;0.68;;
24485;SDS011;13449;49.374;8.584;2023-03-23T12:02:52;0.80;;;0.73;;
24485;SDS011;13449;49.374;8.584;2023-03-23T12:05:43;1.65;;;0.80;;
24485;SDS011;13449;49.374;8.584;2023-03-23T12:14:09;2.72;;;1.45;;
24485;SDS011;13449;49.374;8.584;2023-03-23T12:25:38;2.33;;;0.85;;
24485;SDS011;13449;49.374;8.584;2023-03-23T12:31:01;1.13;;;0.80;;
24485;SDS011;13449;49.374;8.584;2023-03-23T12:45:07;1.20;;;0.70;;
24485;SDS011;13449;49.374;8.584;2023-03-23T12:50:23;2.40;;;0.90;;
24485;SDS011;13449;49.374;8.584;2023-03-23T13:03:15;2.35;;;0.80;;
24485;SDS011;13449;49.374;8.584;2023-03-23T13:05:48;1.42;;;0.95;;
24485;SDS011;13449;49.374;8.584;2023-03-23T13:08:28;1.42;;;0.80;;
24485;SDS011;13449;49.374;8.584;2023-03-23T13:11:00;1.88;;;0.70;;
24485;SDS011;13449;49.374;8.584;2023-03-23T13:19:04;1.10;;;0.90;;
24485;SDS011;13449;49.374;8.584;2023-03-23T13:24:28;3.28;;;0.95;;
24485;SDS011;13449;49.374;8.584;2023-03-23T13:26:58;1.13;;;0.90;;
24485;SDS011;13449;49.374;8.584;2023-03-23T13:29:26;0.88;;;0.82;;
24485;SDS011;13449;49.374;8.584;2023-03-23T13:32:03;3.00;;;1.00;;
24485;SDS011;13449;49.374;8.584;2023-03-23T13:34:36;1.73;;;1.10;;
24485;SDS011;13449;49.374;8.584;2023-03-23T13:37:03;2.30;;;1.25;;
24485;SDS011;13449;49.374;8.584;2023-03-23T13:39:47;1.10;;;0.98;;
24485;SDS011;13449;49.374;8.584;2023-03-23T13:42:52;1.45;;;1.02;;
24485;SDS011;13449;49.374;8.584;2023-03-23T13:50:49;1.20;;;1.10;;
24485;SDS011;13449;49.374;8.584;2023-03-23T13:53:22;1.35;;;1.10;;
24485;SDS011;13449;49.374;8.584;2023-03-23T13:56:18;2.40;;;1.50;;
24485;SDS011;13449;49.374;8.584;2023-03-23T13:58:47;1.33;;;1.10;;
24485;SDS011;13449;49.374;8.584;2023-03-23T14:01:16;2.05;;;1.50;;
24485;SDS011;13449;49.374;8.584;2023-03-23T14:03:48;2.58;;;2.17;;
24485;SDS011;13449;49.374;8.584;2023-03-23T14:06:16;4.00;;;2.22;;
24485;SDS011;13449;49.374;8.584;2023-03-23T14:08:48;1.45;;;0.88;;
24485;SDS011;13449;49.374;8.584;2023-03-23T14:14:06;2.58;;;1.10;;
24485;SDS011;13449;49.374;8.584;2023-03-23T14:16:39;2.63;;;1.27;;
24485;SDS011;13449;49.374;8.584;2023-03-23T14:19:21;1.98;;;1.40;;
24485;SDS011;13449;49.374;8.584;2023-03-23T14:21:55;1.23;;;0.98;;
24485;SDS011;13449;49.374;8.584;2023-03-23T14:24:31;1.50;;;1.10;;
24485;SDS011;13449;49.374;8.584;2023-03-23T14:27:03;0.85;;;0.73;;
24485;SDS011;13449;49.374;8.584;2023-03-23T14:29:37;2.53;;;0.95;;
24485;SDS011;13449;49.374;8.584;2023-03-23T14:32:05;1.50;;;0.95;;
24485;SDS011;13449;49.374;8.584;2023-03-23T14:34:33;3.05;;;1.08;;
24485;SDS011;13449;49.374;8.584;2023-03-23T14:36:59;4.43;;;1.27;;
24485;SDS011;13449;49.374;8.584;2023-03-23T14:39:26;1.83;;;1.17;;
24485;SDS011;13449;49.374;8.584;2023-03-23T14:41:54;1.00;;;0.70;;
24485;SDS011;13449;49.374;8.584;2023-03-23T14:44:25;1.55;;;0.60;;
24485;SDS011;13449;49.374;8.584;2023-03-23T14:46:54;3.33;;;1.45;;
24485;SDS011;13449;49.374;8.584;2023-03-23T14:49:28;1.55;;;0.90;;
24485;SDS011;13449;49.374;8.584;2023-03-23T14:52:02;2.35;;;0.98;;
24485;SDS011;13449;49.374;8.584;2023-03-23T14:54:35;2.20;;;1.25;;
24485;SDS011;13449;49.374;8.584;2023-03-23T14:59:51;1.83;;;1.33;;
24485;SDS011;13449;49.374;8.584;2023-03-23T15:02:37;4.97;;;1.13;;
24485;SDS011;13449;49.374;8.584;2023-03-23T15:05:09;2.03;;;1.20;;
24485;SDS011;13449;49.374;8.584;2023-03-23T15:07:38;4.10;;;1.00;;
24485;SDS011;13449;49.374;8.584;2023-03-23T15:10:14;0.95;;;0.80;;
24485;SDS011;13449;49.374;8.584;2023-03-23T15:12:44;2.30;;;1.00;;
24485;SDS011;13449;49.374;8.584;2023-03-23T15:15:27;1.67;;;0.82;;
24485;SDS011;13449;49.374;8.584;2023-03-23T15:17:55;2.35;;;1.17;;
24485;SDS011;13449;49.374;8.584;2023-03-23T15:22:54;0.88;;;0.77;;
24485;SDS011;13449;49.374;8.584;2023-03-23T15:25:22;4.18;;;1.20;;
24485;SDS011;13449;49.374;8.584;2023-03-23T15:27:54;5.20;;;0.85;;
24485;SDS011;13449;49.374;8.584;2023-03-23T15:30:33;1.92;;;0.85;;
24485;SDS011;13449;49.374;8.584;2023-03-23T15:33:11;3.28;;;1.25;;
24485;SDS011;13449;49.374;8.584;2023-03-23T15:35:38;1.33;;;1.00;;
24485;SDS011;13449;49.374;8.584;2023-03-23T15:38:15;0.88;;;0.88;;
24485;SDS011;13449;49.374;8.584;2023-03-23T15:40:54;5.53;;;1.00;;
24485;SDS011;13449;49.374;8.584;2023-03-23T15:43:22;2.00;;;1.02;;
24485;SDS011;13449;49.374;8.584;2023-03-23T15:45:56;2.15;;;0.75;;
24485;SDS011;13449;49.374;8.584;2023-03-23T15:48:45;2.13;;;0.70;;
24485;SDS011;13449;49.374;8.584;2023-03-23T15:51:12;2.17;;;1.25;;
24485;SDS011;13449;49.374;8.584;2023-03-23T15:53:39;1.02;;;0.80;;
24485;SDS011;13449;49.374;8.584;2023-03-23T15:56:06;1.50;;;0.95;;
24485;SDS011;13449;49.374;8.584;2023-03-23T15:58:35;1.58;;;0.93;;
24485;SDS011;13449;49.374;8.584;2023-03-23T16:01:04;1.35;;;1.00;;
24485;SDS011;13449;49.374;8.584;2023-03-23T16:03:38;3.45;;;1.73;;
24485;SDS011;13449;49.374;8.584;2023-03-23T16:06:24;1.52;;;1.17;;
24485;SDS011;13449;49.374;8.584;2023-03-23T16:08:53;0.70;;;0.70;;
24485;SDS011;13449;49.374;8.584;2023-03-23T16:11:24;1.35;;;0.88;;
24485;SDS011;13449;49.374;8.584;2023-03-23T16:13:53;2.05;;;0.93;;
24485;SDS011;13449;49.374;8.584;2023-03-23T16:16:25;2.88;;;1.08;;
24485;SDS011;13449;49.374;8.584;2023-03-23T16:19:01;2.28;;;0.93;;
24485;SDS011;13449;49.374;8.584;2023-03-23T16:21:27;1.60;;;1.25;;
24485;SDS011;13449;49.374;8.584;2023-03-23T16:23:54;1.88;;;1.45;;
24485;SDS011;13449;49.374;8.584;2023-03-23T16:26:21;3.78;;;1.98;;
24485;SDS011;13449;49.374;8.584;2023-03-23T16:28:48;2.22;;;1.70;;
24485;SDS011;13449;49.374;8.584;2023-03-23T16:31:16;2.30;;;1.33;;
24485;SDS011;13449;49.374;8.584;2023-03-23T16:33:45;2.25;;;1.77;;
24485;SDS011;13449;49.374;8.584;2023-03-23T16:36:12;2.17;;;1.50;;
24485;SDS011;13449;49.374;8.584;2023-03-23T16:38:39;3.92;;;1.48;;
24485;SDS011;13449;49.374;8.584;2023-03-23T16:41:15;1.40;;;1.10;;
24485;SDS011;13449;49.374;8.584;2023-03-23T16:43:41;2.00;;;1.10;;
24485;SDS011;13449;49.374;8.584;2023-03-23T16:46:08;2.38;;;1.20;;
24485;SDS011;13449;49.374;8.584;2023-03-23T16:48:36;2.17;;;1.33;;
24485;SDS011;13449;49.374;8.584;2023-03-23T16:51:03;2.78;;;1.55;;
24485;SDS011;13449;49.374;8.584;2023-03-23T16:53:32;4.03;;;1.65;;
24485;SDS011;13449;49.374;8.584;2023-03-23T16:55:58;2.90;;;1.50;;
24485;SDS011;13449;49.374;8.584;2023-03-23T16:58:25;2.60;;;1.50;;
24485;SDS011;13449;49.374;8.584;2023-03-23T17:00:54;9.82;;;1.77;;
24485;SDS011;13449;49.374;8.584;2023-03-23T17:03:20;7.53;;;1.60;;
24485;SDS011;13449;49.374;8.584;2023-03-23T17:05:48;4.07;;;1.38;;
24485;SDS011;13449;49.374;8.584;2023-03-23T17:08:16;2.65;;;1.70;;
24485;SDS011;13449;49.374;8.584;2023-03-23T17:10:44;6.25;;;1.85;;